sensor_id;sensor_type;location;lat;lon;timestamp;temperature;humidity
29687;DHT22;16599;47.078;15.536;2022-11-20T00:01:11;1.30;99.90
29687;DHT22;16599;47.078;15.536;2022-11-20T00:03:38;1.40;99.90
29687;DHT22;16599;47.078;15.536;2022-11-20T00:06:11;1.50;99.90
29687;DHT22;16599;47.078;15.536;2022-11-20T00:08:39;1.50;99.90
29687;DHT22;16599;47.078;15.536;2022-11-20T00:11:11;1.50;99.90
29687;DHT22;16599;47.078;15.536;2022-11-20T00:13:43;1.40;99.90
29687;DHT22;16599;47.078;15.536;2022-11-20T00:16:12;1.10;99.90
29687;DHT22;16599;47.078;15.536;2022-11-20T00:18:39;1.30;99.90
29687;DHT22;16599;47.078;15.536;2022-11-20T00:21:09;1.40;99.90
29687;DHT22;16599;47.078;15.536;2022-11-20T00:23:36;1.50;99.90
29687;DHT22;16599;47.078;15.536;2022-11-20T00:26:06;1.60;99.90
29687;DHT22;16599;47.078;15.536;2022-11-20T00:28:33;1.60;99.90
29687;DHT22;16599;47.078;15.536;2022-11-20T00:31:05;1.60;99.90
29687;DHT22;16599;47.078;15.536;2022-11-20T00:33:32;1.60;99.90
29687;DHT22;16599;47.078;15.536;2022-11-20T00:36:04;1.60;99.90
29687;DHT22;16599;47.078;15.536;2022-11-20T00:38:31;1.60;99.90
29687;DHT22;16599;47.078;15.536;2022-11-20T00:41:00;1.60;99.90
29687;DHT22;16599;47.078;15.536;2022-11-20T00:43:27;1.70;99.90
29687;DHT22;16599;47.078;15.536;2022-11-20T00:46:02;1.70;99.90
29687;DHT22;16599;47.078;15.536;2022-11-20T00:48:29;1.70;99.90
29687;DHT22;16599;47.078;15.536;2022-11-20T00:50:57;1.70;99.90
29687;DHT22;16599;47.078;15.536;2022-11-20T00:53:24;1.70;99.90
29687;DHT22;16599;47.078;15.536;2022-11-20T00:55:59;1.70;99.90
29687;DHT22;16599;47.078;15.536;2022-11-20T00:58:30;1.70;99.90
29687;DHT22;16599;47.078;15.536;2022-11-20T01:01:05;1.70;99.90
29687;DHT22;16599;47.078;15.536;2022-11-20T01:03:33;1.70;99.90
29687;DHT22;16599;47.078;15.536;2022-11-20T01:06:02;1.70;99.90
29687;DHT22;16599;47.078;15.536;2022-11-20T01:08:31;1.70;99.90
29687;DHT22;16599;47.078;15.536;2022-11-20T01:11:03;1.80;99.90
29687;DHT22;16599;47.078;15.536;2022-11-20T01:13:30;1.70;99.90
29687;DHT22;16599;47.078;15.536;2022-11-20T01:18:39;1.40;99.90
29687;DHT22;16599;47.078;15.536;2022-11-20T01:21:09;1.30;99.90
29687;DHT22;16599;47.078;15.536;2022-11-20T01:23:38;1.40;99.90
29687;DHT22;16599;47.078;15.536;2022-11-20T01:26:08;1.40;99.90
29687;DHT22;16599;47.078;15.536;2022-11-20T01:28:35;1.40;99.90
29687;DHT22;16599;47.078;15.536;2022-11-20T01:31:24;1.50;99.90
29687;DHT22;16599;47.078;15.536;2022-11-20T01:33:54;1.60;99.90
29687;DHT22;16599;47.078;15.536;2022-11-20T01:36:23;1.40;99.90
29687;DHT22;16599;47.078;15.536;2022-11-20T01:38:54;1.50;99.90
29687;DHT22;16599;47.078;15.536;2022-11-20T01:41:23;1.50;99.90
29687;DHT22;16599;47.078;15.536;2022-11-20T01:44:10;1.40;99.90
29687;DHT22;16599;47.078;15.536;2022-11-20T01:46:40;1.30;99.90
29687;DHT22;16599;47.078;15.536;2022-11-20T01:49:16;1.10;99.90
29687;DHT22;16599;47.078;15.536;2022-11-20T01:51:55;1.10;99.90
29687;DHT22;16599;47.078;15.536;2022-11-20T01:54:28;1.10;99.90
29687;DHT22;16599;47.078;15.536;2022-11-20T01:56:57;1.40;99.90
29687;DHT22;16599;47.078;15.536;2022-11-20T01:59:26;1.40;99.90
29687;DHT22;16599;47.078;15.536;2022-11-20T02:01:55;1.50;99.90
29687;DHT22;16599;47.078;15.536;2022-11-20T02:04:22;1.40;99.90
29687;DHT22;16599;47.078;15.536;2022-11-20T02:07:00;1.20;99.90
29687;DHT22;16599;47.078;15.536;2022-11-20T02:09:28;1.20;99.90
29687;DHT22;16599;47.078;15.536;2022-11-20T02:11:55;1.20;99.90
29687;DHT22;16599;47.078;15.536;2022-11-20T02:14:22;1.10;99.90
29687;DHT22;16599;47.078;15.536;2022-11-20T02:16:50;1.10;99.90
29687;DHT22;16599;47.078;15.536;2022-11-20T02:22:10;1.10;99.90
29687;DHT22;16599;47.078;15.536;2022-11-20T02:24:38;1.30;99.90
29687;DHT22;16599;47.078;15.536;2022-11-20T02:27:09;1.40;99.90
29687;DHT22;16599;47.078;15.536;2022-11-20T02:29:56;1.30;99.90
29687;DHT22;16599;47.078;15.536;2022-11-20T02:32:28;1.30;99.90
29687;DHT22;16599;47.078;15.536;2022-11-20T02:34:55;1.40;99.90
29687;DHT22;16599;47.078;15.536;2022-11-20T02:37:29;1.40;99.90
29687;DHT22;16599;47.078;15.536;2022-11-20T02:39:57;1.50;99.90
29687;DHT22;16599;47.078;15.536;2022-11-20T02:42:24;1.50;99.90
29687;DHT22;16599;47.078;15.536;2022-11-20T02:44:51;1.40;99.90
29687;DHT22;16599;47.078;15.536;2022-11-20T02:47:17;1.60;99.90
29687;DHT22;16599;47.078;15.536;2022-11-20T02:49:44;1.60;99.90
29687;DHT22;16599;47.078;15.536;2022-11-20T02:52:11;1.70;99.90
29687;DHT22;16599;47.078;15.536;2022-11-20T02:54:38;1.70;99.90
29687;DHT22;16599;47.078;15.536;2022-11-20T02:57:04;1.70;99.90
29687;DHT22;16599;47.078;15.536;2022-11-20T02:59:31;1.70;99.90
29687;DHT22;16599;47.078;15.536;2022-11-20T03:01:58;1.70;99.90
29687;DHT22;16599;47.078;15.536;2022-11-20T03:04:25;1.70;99.90
29687;DHT22;16599;47.078;15.536;2022-11-20T03:06:51;1.70;99.90
29687;DHT22;16599;47.078;15.536;2022-11-20T03:09:18;1.80;99.90
29687;DHT22;16599;47.078;15.536;2022-11-20T03:11:45;1.60;99.90
29687;DHT22;16599;47.078;15.536;2022-11-20T03:14:12;1.60;99.90
29687;DHT22;16599;47.078;15.536;2022-11-20T03:16:39;1.50;99.90
29687;DHT22;16599;47.078;15.536;2022-11-20T03:19:06;1.40;99.90
29687;DHT22;16599;47.078;15.536;2022-11-20T03:21:34;1.50;99.90
29687;DHT22;16599;47.078;15.536;2022-11-20T03:24:02;1.60;99.90
29687;DHT22;16599;47.078;15.536;2022-11-20T03:26:29;1.70;99.90
29687;DHT22;16599;47.078;15.536;2022-11-20T03:28:58;1.80;99.90
29687;DHT22;16599;47.078;15.536;2022-11-20T03:31:30;1.80;99.90
29687;DHT22;16599;47.078;15.536;2022-11-20T03:33:58;1.70;99.90
29687;DHT22;16599;47.078;15.536;2022-11-20T03:36:26;1.50;99.90
29687;DHT22;16599;47.078;15.536;2022-11-20T03:38:54;1.60;99.90
29687;DHT22;16599;47.078;15.536;2022-11-20T03:41:24;1.50;99.90
29687;DHT22;16599;47.078;15.536;2022-11-20T03:43:59;1.50;99.90
29687;DHT22;16599;47.078;15.536;2022-11-20T03:46:28;1.60;99.90
29687;DHT22;16599;47.078;15.536;2022-11-20T03:48:55;1.70;99.90
29687;DHT22;16599;47.078;15.536;2022-11-20T03:51:24;1.60;99.90
29687;DHT22;16599;47.078;15.536;2022-11-20T03:53:54;1.60;99.90
29687;DHT22;16599;47.078;15.536;2022-11-20T03:56:26;1.40;99.90
29687;DHT22;16599;47.078;15.536;2022-11-20T03:58:54;1.30;99.90
29687;DHT22;16599;47.078;15.536;2022-11-20T04:01:26;1.30;99.90
29687;DHT22;16599;47.078;15.536;2022-11-20T04:03:54;1.50;99.90
29687;DHT22;16599;47.078;15.536;2022-11-20T04:08:50;1.50;99.90
29687;DHT22;16599;47.078;15.536;2022-11-20T04:11:31;1.60;99.90
29687;DHT22;16599;47.078;15.536;2022-11-20T04:14:00;1.50;99.90
29687;DHT22;16599;47.078;15.536;2022-11-20T04:16:30;1.50;99.90
29687;DHT22;16599;47.078;15.536;2022-11-20T04:18:59;1.40;99.90
29687;DHT22;16599;47.078;15.536;2022-11-20T04:21:26;1.40;99.90
29687;DHT22;16599;47.078;15.536;2022-11-20T04:23:54;1.30;99.90
29687;DHT22;16599;47.078;15.536;2022-11-20T04:26:22;1.20;99.90
29687;DHT22;16599;47.078;15.536;2022-11-20T04:28:50;1.20;99.90
29687;DHT22;16599;47.078;15.536;2022-11-20T04:31:20;1.20;99.90
29687;DHT22;16599;47.078;15.536;2022-11-20T04:33:48;1.20;99.90
29687;DHT22;16599;47.078;15.536;2022-11-20T04:36:20;1.30;99.90
29687;DHT22;16599;47.078;15.536;2022-11-20T04:38:54;1.40;99.90
29687;DHT22;16599;47.078;15.536;2022-11-20T04:41:28;1.30;99.90
29687;DHT22;16599;47.078;15.536;2022-11-20T04:43:57;1.40;99.90
29687;DHT22;16599;47.078;15.536;2022-11-20T04:46:27;1.40;99.90
29687;DHT22;16599;47.078;15.536;2022-11-20T04:48:54;1.30;99.90
29687;DHT22;16599;47.078;15.536;2022-11-20T04:51:21;1.50;99.90
29687;DHT22;16599;47.078;15.536;2022-11-20T04:53:48;1.40;99.90
29687;DHT22;16599;47.078;15.536;2022-11-20T04:56:15;1.40;99.90
29687;DHT22;16599;47.078;15.536;2022-11-20T04:58:42;1.50;99.90
29687;DHT22;16599;47.078;15.536;2022-11-20T05:03:42;1.40;99.90
29687;DHT22;16599;47.078;15.536;2022-11-20T05:06:11;1.40;99.90
29687;DHT22;16599;47.078;15.536;2022-11-20T05:08:39;1.40;99.90
29687;DHT22;16599;47.078;15.536;2022-11-20T05:11:11;1.30;99.90
29687;DHT22;16599;47.078;15.536;2022-11-20T05:13:38;1.40;99.90
29687;DHT22;16599;47.078;15.536;2022-11-20T05:16:11;1.50;99.90
29687;DHT22;16599;47.078;15.536;2022-11-20T05:18:39;1.40;99.90
29687;DHT22;16599;47.078;15.536;2022-11-20T05:21:06;1.50;99.90
29687;DHT22;16599;47.078;15.536;2022-11-20T05:23:34;1.50;99.90
29687;DHT22;16599;47.078;15.536;2022-11-20T05:26:01;1.50;99.90
29687;DHT22;16599;47.078;15.536;2022-11-20T05:28:29;1.50;99.90
29687;DHT22;16599;47.078;15.536;2022-11-20T05:31:03;1.50;99.90
29687;DHT22;16599;47.078;15.536;2022-11-20T05:33:30;1.60;99.90
29687;DHT22;16599;47.078;15.536;2022-11-20T05:36:01;1.70;99.90
29687;DHT22;16599;47.078;15.536;2022-11-20T05:38:27;1.60;99.90
29687;DHT22;16599;47.078;15.536;2022-11-20T05:40:54;1.50;99.90
29687;DHT22;16599;47.078;15.536;2022-11-20T05:43:21;1.40;99.90
29687;DHT22;16599;47.078;15.536;2022-11-20T05:45:52;1.40;99.90
29687;DHT22;16599;47.078;15.536;2022-11-20T05:48:20;1.50;99.90
29687;DHT22;16599;47.078;15.536;2022-11-20T05:50:48;1.50;99.90
29687;DHT22;16599;47.078;15.536;2022-11-20T05:53:15;1.50;99.90
29687;DHT22;16599;47.078;15.536;2022-11-20T05:55:41;1.50;99.90
29687;DHT22;16599;47.078;15.536;2022-11-20T05:58:08;1.60;99.90
29687;DHT22;16599;47.078;15.536;2022-11-20T06:00:35;1.60;99.90
29687;DHT22;16599;47.078;15.536;2022-11-20T06:03:02;1.60;99.90
29687;DHT22;16599;47.078;15.536;2022-11-20T06:05:29;1.50;99.90
29687;DHT22;16599;47.078;15.536;2022-11-20T06:07:56;1.60;99.90
29687;DHT22;16599;47.078;15.536;2022-11-20T06:10:23;1.60;99.90
29687;DHT22;16599;47.078;15.536;2022-11-20T06:12:50;1.60;99.90
29687;DHT22;16599;47.078;15.536;2022-11-20T06:15:16;1.60;99.90
29687;DHT22;16599;47.078;15.536;2022-11-20T06:17:43;1.60;99.90
29687;DHT22;16599;47.078;15.536;2022-11-20T06:20:10;1.50;99.90
29687;DHT22;16599;47.078;15.536;2022-11-20T06:22:37;1.50;99.90
29687;DHT22;16599;47.078;15.536;2022-11-20T06:25:04;1.60;99.90
29687;DHT22;16599;47.078;15.536;2022-11-20T06:27:31;1.60;99.90
29687;DHT22;16599;47.078;15.536;2022-11-20T06:29:57;1.70;99.90
29687;DHT22;16599;47.078;15.536;2022-11-20T06:32:24;1.70;99.90
29687;DHT22;16599;47.078;15.536;2022-11-20T06:34:51;1.70;99.90
29687;DHT22;16599;47.078;15.536;2022-11-20T06:37:18;1.70;99.90
29687;DHT22;16599;47.078;15.536;2022-11-20T06:39:44;1.70;99.90
29687;DHT22;16599;47.078;15.536;2022-11-20T06:42:11;1.50;99.90
29687;DHT22;16599;47.078;15.536;2022-11-20T06:44:38;1.60;99.90
29687;DHT22;16599;47.078;15.536;2022-11-20T06:47:05;1.50;99.90
29687;DHT22;16599;47.078;15.536;2022-11-20T06:49:32;1.60;99.90
29687;DHT22;16599;47.078;15.536;2022-11-20T06:52:00;1.60;99.90
29687;DHT22;16599;47.078;15.536;2022-11-20T06:54:27;1.60;99.90
29687;DHT22;16599;47.078;15.536;2022-11-20T06:56:54;1.70;99.90
29687;DHT22;16599;47.078;15.536;2022-11-20T06:59:21;1.50;99.90
29687;DHT22;16599;47.078;15.536;2022-11-20T07:01:48;1.60;99.90
29687;DHT22;16599;47.078;15.536;2022-11-20T07:04:15;1.70;99.90
29687;DHT22;16599;47.078;15.536;2022-11-20T07:06:44;1.80;99.90
29687;DHT22;16599;47.078;15.536;2022-11-20T07:09:11;1.70;99.90
29687;DHT22;16599;47.078;15.536;2022-11-20T07:11:38;1.60;99.90
29687;DHT22;16599;47.078;15.536;2022-11-20T07:14:05;1.70;99.90
29687;DHT22;16599;47.078;15.536;2022-11-20T07:16:32;1.70;99.90
29687;DHT22;16599;47.078;15.536;2022-11-20T07:18:59;1.70;99.90
29687;DHT22;16599;47.078;15.536;2022-11-20T07:21:26;1.70;99.90
29687;DHT22;16599;47.078;15.536;2022-11-20T07:23:53;1.50;99.90
29687;DHT22;16599;47.078;15.536;2022-11-20T07:26:20;1.40;99.90
29687;DHT22;16599;47.078;15.536;2022-11-20T07:28:47;1.30;99.90
29687;DHT22;16599;47.078;15.536;2022-11-20T07:31:14;1.30;99.90
29687;DHT22;16599;47.078;15.536;2022-11-20T07:33:45;1.40;99.90
29687;DHT22;16599;47.078;15.536;2022-11-20T07:36:12;1.50;99.90
29687;DHT22;16599;47.078;15.536;2022-11-20T07:38:38;1.60;99.90
29687;DHT22;16599;47.078;15.536;2022-11-20T07:41:05;1.80;99.90
29687;DHT22;16599;47.078;15.536;2022-11-20T07:43:32;1.70;99.90
29687;DHT22;16599;47.078;15.536;2022-11-20T07:46:06;1.70;99.90
29687;DHT22;16599;47.078;15.536;2022-11-20T07:48:33;1.70;99.90
29687;DHT22;16599;47.078;15.536;2022-11-20T07:51:07;1.70;99.90
29687;DHT22;16599;47.078;15.536;2022-11-20T07:53:34;1.70;99.90
29687;DHT22;16599;47.078;15.536;2022-11-20T07:56:26;1.90;99.90
29687;DHT22;16599;47.078;15.536;2022-11-20T07:58:53;1.60;99.90
29687;DHT22;16599;47.078;15.536;2022-11-20T08:01:19;1.60;99.90
29687;DHT22;16599;47.078;15.536;2022-11-20T08:03:46;1.60;99.90
29687;DHT22;16599;47.078;15.536;2022-11-20T08:06:13;1.70;99.90
29687;DHT22;16599;47.078;15.536;2022-11-20T08:08:41;1.80;99.90
29687;DHT22;16599;47.078;15.536;2022-11-20T08:11:08;2.00;99.90
29687;DHT22;16599;47.078;15.536;2022-11-20T08:13:54;1.90;99.90
29687;DHT22;16599;47.078;15.536;2022-11-20T08:16:46;1.90;99.90
29687;DHT22;16599;47.078;15.536;2022-11-20T08:19:15;2.00;99.90
29687;DHT22;16599;47.078;15.536;2022-11-20T08:21:43;2.00;99.90
29687;DHT22;16599;47.078;15.536;2022-11-20T08:24:19;2.10;99.90
29687;DHT22;16599;47.078;15.536;2022-11-20T08:26:46;2.10;99.90
29687;DHT22;16599;47.078;15.536;2022-11-20T08:29:13;2.20;99.90
29687;DHT22;16599;47.078;15.536;2022-11-20T08:31:39;2.30;99.90
29687;DHT22;16599;47.078;15.536;2022-11-20T08:34:06;2.40;99.90
29687;DHT22;16599;47.078;15.536;2022-11-20T08:36:36;2.30;99.90
29687;DHT22;16599;47.078;15.536;2022-11-20T08:39:03;2.20;99.90
29687;DHT22;16599;47.078;15.536;2022-11-20T08:41:30;2.20;99.90
29687;DHT22;16599;47.078;15.536;2022-11-20T08:44:05;2.10;99.90
29687;DHT22;16599;47.078;15.536;2022-11-20T08:46:38;2.30;99.90
29687;DHT22;16599;47.078;15.536;2022-11-20T08:49:10;2.40;99.90
29687;DHT22;16599;47.078;15.536;2022-11-20T08:52:03;2.50;99.90
29687;DHT22;16599;47.078;15.536;2022-11-20T08:54:30;2.60;99.90
29687;DHT22;16599;47.078;15.536;2022-11-20T08:56:57;2.70;99.90
29687;DHT22;16599;47.078;15.536;2022-11-20T08:59:23;2.60;99.90
29687;DHT22;16599;47.078;15.536;2022-11-20T09:02:10;2.60;99.90
29687;DHT22;16599;47.078;15.536;2022-11-20T09:04:37;2.70;99.90
29687;DHT22;16599;47.078;15.536;2022-11-20T09:07:04;2.60;99.90
29687;DHT22;16599;47.078;15.536;2022-11-20T09:09:31;2.60;99.90
29687;DHT22;16599;47.078;15.536;2022-11-20T09:11:58;2.60;99.90
29687;DHT22;16599;47.078;15.536;2022-11-20T09:14:24;2.60;99.90
29687;DHT22;16599;47.078;15.536;2022-11-20T09:16:56;2.60;99.90
29687;DHT22;16599;47.078;15.536;2022-11-20T09:19:26;2.70;99.90
29687;DHT22;16599;47.078;15.536;2022-11-20T09:22:01;2.70;99.90
29687;DHT22;16599;47.078;15.536;2022-11-20T09:24:28;2.70;99.90
29687;DHT22;16599;47.078;15.536;2022-11-20T09:26:55;2.60;99.90
29687;DHT22;16599;47.078;15.536;2022-11-20T09:29:22;2.60;99.90
29687;DHT22;16599;47.078;15.536;2022-11-20T09:31:49;2.70;99.90
29687;DHT22;16599;47.078;15.536;2022-11-20T09:34:16;2.70;99.90
29687;DHT22;16599;47.078;15.536;2022-11-20T09:36:43;2.70;99.90
29687;DHT22;16599;47.078;15.536;2022-11-20T09:39:10;2.90;99.90
29687;DHT22;16599;47.078;15.536;2022-11-20T09:55:29;3.30;99.90
29687;DHT22;16599;47.078;15.536;2022-11-20T09:57:57;3.40;99.90
29687;DHT22;16599;47.078;15.536;2022-11-20T10:00:26;3.30;99.90
29687;DHT22;16599;47.078;15.536;2022-11-20T10:03:14;3.40;99.90
29687;DHT22;16599;47.078;15.536;2022-11-20T10:05:53;3.60;99.90
29687;DHT22;16599;47.078;15.536;2022-11-20T10:08:44;3.70;99.90
29687;DHT22;16599;47.078;15.536;2022-11-20T10:11:33;3.80;99.90
29687;DHT22;16599;47.078;15.536;2022-11-20T10:32:13;4.50;99.90
29687;DHT22;16599;47.078;15.536;2022-11-20T10:37:22;4.60;99.90
29687;DHT22;16599;47.078;15.536;2022-11-20T10:42:47;4.70;99.90
29687;DHT22;16599;47.078;15.536;2022-11-20T10:48:12;5.30;99.90
29687;DHT22;16599;47.078;15.536;2022-11-20T10:50:57;5.90;99.90
29687;DHT22;16599;47.078;15.536;2022-11-20T10:56:35;6.00;99.90
29687;DHT22;16599;47.078;15.536;2022-11-20T11:01:42;6.00;99.90
29687;DHT22;16599;47.078;15.536;2022-11-20T11:07:33;6.10;99.90
29687;DHT22;16599;47.078;15.536;2022-11-20T11:09:53;6.00;99.90
29687;DHT22;16599;47.078;15.536;2022-11-20T11:12:21;6.00;99.90
29687;DHT22;16599;47.078;15.536;2022-11-20T11:14:51;6.00;99.90
29687;DHT22;16599;47.078;15.536;2022-11-20T11:17:28;6.10;99.90
29687;DHT22;16599;47.078;15.536;2022-11-20T11:23:03;6.20;99.90
29687;DHT22;16599;47.078;15.536;2022-11-20T11:25:33;6.30;99.90
29687;DHT22;16599;47.078;15.536;2022-11-20T11:28:19;6.40;99.90
29687;DHT22;16599;47.078;15.536;2022-11-20T11:30:46;6.40;99.90
29687;DHT22;16599;47.078;15.536;2022-11-20T11:33:27;6.40;99.90
29687;DHT22;16599;47.078;15.536;2022-11-20T11:35:57;6.40;99.90
29687;DHT22;16599;47.078;15.536;2022-11-20T11:38:39;6.40;99.90
29687;DHT22;16599;47.078;15.536;2022-11-20T11:41:25;6.40;99.90
29687;DHT22;16599;47.078;15.536;2022-11-20T11:43:56;6.40;99.90
29687;DHT22;16599;47.078;15.536;2022-11-20T11:46:56;6.40;99.90
29687;DHT22;16599;47.078;15.536;2022-11-20T11:49:24;6.40;99.90
29687;DHT22;16599;47.078;15.536;2022-11-20T11:52:15;6.40;99.90
29687;DHT22;16599;47.078;15.536;2022-11-20T12:00:16;6.70;99.90
29687;DHT22;16599;47.078;15.536;2022-11-20T12:10:58;6.90;99.90
29687;DHT22;16599;47.078;15.536;2022-11-20T12:13:53;7.00;99.90
29687;DHT22;16599;47.078;15.536;2022-11-20T12:16:22;7.00;99.90
29687;DHT22;16599;47.078;15.536;2022-11-20T12:18:51;7.30;99.90
29687;DHT22;16599;47.078;15.536;2022-11-20T12:21:47;7.30;99.90
29687;DHT22;16599;47.078;15.536;2022-11-20T12:33:04;7.60;99.90
29687;DHT22;16599;47.078;15.536;2022-11-20T12:36:06;7.50;99.90
29687;DHT22;16599;47.078;15.536;2022-11-20T12:39:07;7.20;99.90
29687;DHT22;16599;47.078;15.536;2022-11-20T12:44:38;7.50;99.90
29687;DHT22;16599;47.078;15.536;2022-11-20T12:55:49;7.80;99.90
29687;DHT22;16599;47.078;15.536;2022-11-20T12:58:44;7.80;99.90
29687;DHT22;16599;47.078;15.536;2022-11-20T13:01:48;7.90;99.90
29687;DHT22;16599;47.078;15.536;2022-11-20T13:06:46;7.60;99.90
29687;DHT22;16599;47.078;15.536;2022-11-20T13:09:17;7.70;99.90
29687;DHT22;16599;47.078;15.536;2022-11-20T13:14:53;7.90;99.90
29687;DHT22;16599;47.078;15.536;2022-11-20T13:17:24;7.90;99.90
29687;DHT22;16599;47.078;15.536;2022-11-20T13:19:56;7.70;99.90
29687;DHT22;16599;47.078;15.536;2022-11-20T13:22:45;7.60;99.90
29687;DHT22;16599;47.078;15.536;2022-11-20T13:27:50;7.70;99.90
29687;DHT22;16599;47.078;15.536;2022-11-20T13:30:22;7.70;99.90
29687;DHT22;16599;47.078;15.536;2022-11-20T13:33:02;7.60;99.90
29687;DHT22;16599;47.078;15.536;2022-11-20T13:35:33;7.60;99.90
29687;DHT22;16599;47.078;15.536;2022-11-20T13:38:14;7.70;99.90
29687;DHT22;16599;47.078;15.536;2022-11-20T13:40:54;7.80;99.90
29687;DHT22;16599;47.078;15.536;2022-11-20T13:43:27;7.60;99.90
29687;DHT22;16599;47.078;15.536;2022-11-20T13:46:05;7.50;99.90
29687;DHT22;16599;47.078;15.536;2022-11-20T13:48:44;7.60;99.90
29687;DHT22;16599;47.078;15.536;2022-11-20T13:51:51;7.60;99.90
29687;DHT22;16599;47.078;15.536;2022-11-20T14:00:12;7.60;99.90
29687;DHT22;16599;47.078;15.536;2022-11-20T14:02:40;7.70;99.90
29687;DHT22;16599;47.078;15.536;2022-11-20T14:05:20;7.60;99.90
29687;DHT22;16599;47.078;15.536;2022-11-20T14:07:50;7.50;99.90
29687;DHT22;16599;47.078;15.536;2022-11-20T14:10:26;7.20;99.90
29687;DHT22;16599;47.078;15.536;2022-11-20T14:12:58;7.10;99.90
29687;DHT22;16599;47.078;15.536;2022-11-20T14:15:27;7.20;99.90
29687;DHT22;16599;47.078;15.536;2022-11-20T14:17:54;7.30;99.90
29687;DHT22;16599;47.078;15.536;2022-11-20T14:20:24;7.50;99.90
29687;DHT22;16599;47.078;15.536;2022-11-20T14:22:53;7.50;99.90
29687;DHT22;16599;47.078;15.536;2022-11-20T14:25:24;7.30;99.90
29687;DHT22;16599;47.078;15.536;2022-11-20T14:27:59;7.10;99.90
29687;DHT22;16599;47.078;15.536;2022-11-20T14:30:42;7.00;99.90
29687;DHT22;16599;47.078;15.536;2022-11-20T14:33:11;6.80;99.90
29687;DHT22;16599;47.078;15.536;2022-11-20T14:35:50;6.70;99.90
29687;DHT22;16599;47.078;15.536;2022-11-20T14:38:22;6.50;99.90
29687;DHT22;16599;47.078;15.536;2022-11-20T14:40:50;6.30;99.90
29687;DHT22;16599;47.078;15.536;2022-11-20T14:45:56;6.20;99.90
29687;DHT22;16599;47.078;15.536;2022-11-20T14:48:39;6.00;99.90
29687;DHT22;16599;47.078;15.536;2022-11-20T14:51:11;5.80;99.90
29687;DHT22;16599;47.078;15.536;2022-11-20T14:53:38;5.60;99.90
29687;DHT22;16599;47.078;15.536;2022-11-20T14:56:05;5.50;99.90
29687;DHT22;16599;47.078;15.536;2022-11-20T14:58:33;5.50;99.90
29687;DHT22;16599;47.078;15.536;2022-11-20T15:01:03;5.20;99.90
29687;DHT22;16599;47.078;15.536;2022-11-20T15:03:35;5.10;99.90
29687;DHT22;16599;47.078;15.536;2022-11-20T15:06:03;5.10;99.90
29687;DHT22;16599;47.078;15.536;2022-11-20T15:11:18;4.30;99.90
29687;DHT22;16599;47.078;15.536;2022-11-20T15:13:46;4.30;99.90
29687;DHT22;16599;47.078;15.536;2022-11-20T15:16:21;4.10;99.90
29687;DHT22;16599;47.078;15.536;2022-11-20T15:18:49;3.90;99.90
29687;DHT22;16599;47.078;15.536;2022-11-20T15:21:18;3.90;99.90
29687;DHT22;16599;47.078;15.536;2022-11-20T15:23:45;4.00;99.90
29687;DHT22;16599;47.078;15.536;2022-11-20T15:31:24;3.60;99.90
29687;DHT22;16599;47.078;15.536;2022-11-20T15:33:51;3.80;99.90
29687;DHT22;16599;47.078;15.536;2022-11-20T15:36:18;3.70;99.90
29687;DHT22;16599;47.078;15.536;2022-11-20T15:38:46;3.20;99.90
29687;DHT22;16599;47.078;15.536;2022-11-20T15:41:13;3.00;99.90
29687;DHT22;16599;47.078;15.536;2022-11-20T15:43:40;3.10;99.90
29687;DHT22;16599;47.078;15.536;2022-11-20T15:46:10;3.20;99.90
29687;DHT22;16599;47.078;15.536;2022-11-20T15:48:45;3.10;99.90
29687;DHT22;16599;47.078;15.536;2022-11-20T15:51:48;3.00;99.90
29687;DHT22;16599;47.078;15.536;2022-11-20T15:54:20;2.90;99.90
29687;DHT22;16599;47.078;15.536;2022-11-20T15:56:49;2.90;99.90
29687;DHT22;16599;47.078;15.536;2022-11-20T15:59:18;2.80;99.90
29687;DHT22;16599;47.078;15.536;2022-11-20T16:01:45;2.80;99.90
29687;DHT22;16599;47.078;15.536;2022-11-20T16:04:15;2.50;99.90
29687;DHT22;16599;47.078;15.536;2022-11-20T16:06:42;2.60;99.90
29687;DHT22;16599;47.078;15.536;2022-11-20T16:09:09;2.30;99.90
29687;DHT22;16599;47.078;15.536;2022-11-20T16:11:37;2.40;99.90
29687;DHT22;16599;47.078;15.536;2022-11-20T16:14:05;2.60;99.90
29687;DHT22;16599;47.078;15.536;2022-11-20T16:16:51;2.50;99.90
29687;DHT22;16599;47.078;15.536;2022-11-20T16:19:18;2.60;99.90
29687;DHT22;16599;47.078;15.536;2022-11-20T16:21:46;2.60;99.90
29687;DHT22;16599;47.078;15.536;2022-11-20T16:24:13;2.60;99.90
29687;DHT22;16599;47.078;15.536;2022-11-20T16:26:41;2.70;99.90
29687;DHT22;16599;47.078;15.536;2022-11-20T16:29:08;2.40;99.90
29687;DHT22;16599;47.078;15.536;2022-11-20T16:31:36;2.40;99.90
29687;DHT22;16599;47.078;15.536;2022-11-20T16:34:05;2.60;99.90
29687;DHT22;16599;47.078;15.536;2022-11-20T16:36:49;2.70;99.90
29687;DHT22;16599;47.078;15.536;2022-11-20T16:39:15;2.80;99.90
29687;DHT22;16599;47.078;15.536;2022-11-20T16:41:49;2.70;99.90
29687;DHT22;16599;47.078;15.536;2022-11-20T16:44:16;2.80;99.90
29687;DHT22;16599;47.078;15.536;2022-11-20T16:46:43;2.90;99.90
29687;DHT22;16599;47.078;15.536;2022-11-20T16:49:14;3.10;99.90
29687;DHT22;16599;47.078;15.536;2022-11-20T16:51:41;3.10;99.90
29687;DHT22;16599;47.078;15.536;2022-11-20T16:54:09;3.10;99.90
29687;DHT22;16599;47.078;15.536;2022-11-20T16:56:40;3.20;99.90
29687;DHT22;16599;47.078;15.536;2022-11-20T17:04:29;3.40;99.90
29687;DHT22;16599;47.078;15.536;2022-11-20T17:06:56;3.40;99.90
29687;DHT22;16599;47.078;15.536;2022-11-20T17:09:23;3.40;99.90
29687;DHT22;16599;47.078;15.536;2022-11-20T17:11:50;3.40;99.90
29687;DHT22;16599;47.078;15.536;2022-11-20T17:14:17;3.40;99.90
29687;DHT22;16599;47.078;15.536;2022-11-20T17:16:44;3.50;99.90
29687;DHT22;16599;47.078;15.536;2022-11-20T17:19:13;3.60;99.90
29687;DHT22;16599;47.078;15.536;2022-11-20T17:21:40;3.70;99.90
29687;DHT22;16599;47.078;15.536;2022-11-20T17:24:10;3.70;99.90
29687;DHT22;16599;47.078;15.536;2022-11-20T17:26:39;3.60;99.90
29687;DHT22;16599;47.078;15.536;2022-11-20T17:29:09;3.50;99.90
29687;DHT22;16599;47.078;15.536;2022-11-20T17:31:37;3.40;99.90
29687;DHT22;16599;47.078;15.536;2022-11-20T17:34:06;3.40;99.90
29687;DHT22;16599;47.078;15.536;2022-11-20T17:36:34;3.40;99.90
29687;DHT22;16599;47.078;15.536;2022-11-20T17:39:01;3.40;99.90
29687;DHT22;16599;47.078;15.536;2022-11-20T17:41:28;3.30;99.90
29687;DHT22;16599;47.078;15.536;2022-11-20T17:43:59;3.30;99.90
29687;DHT22;16599;47.078;15.536;2022-11-20T17:46:29;3.30;99.90
29687;DHT22;16599;47.078;15.536;2022-11-20T17:48:58;3.40;99.90
29687;DHT22;16599;47.078;15.536;2022-11-20T17:51:28;3.40;99.90
29687;DHT22;16599;47.078;15.536;2022-11-20T17:53:57;3.40;99.90
29687;DHT22;16599;47.078;15.536;2022-11-20T17:56:25;3.50;99.90
29687;DHT22;16599;47.078;15.536;2022-11-20T17:59:12;3.40;99.90